San Juan Capistrano, CA (92675)

11:37 AM PST on December 04, 2016 (GMT -0800)
Las Brisas - Mission Area | | Change Station

Elev 210 ft 33.51 °N, 117.66 °W | Updated 45 seconds ago

Partly Cloudy
Partly Cloudy
68.2 °F
Feels Like 68.2 °F
N
0.0
Wind Variable Wind from SW
Gusts 0.0 mph

Today
High -- | Low -- °F
--% Chance of Precip.
Yesterday
High -- | Low -- °F
Precip. -- in
Pressure 30.07 in
Visibility 10.0 miles
Clouds Few 28000 ft
Dew Point 28 °F
Humidity 22%
Rainfall 0.00 in
Snow Depth Not available.
6:39 AM 4:42 PM
Waxing Crescent, 25% visible
METAR KSNA 041853Z 00000KT 10SM FEW280 18/05 A3007 RMK AO2 SLP182 T01830050
Pressure 30.07 in
Visibility 10.0 miles
Clouds Few 28000 ft
Dew Point 28 °F
Humidity 22%
Rainfall 0.00 in
Snow Depth Not available.
6:39 AM 4:42 PM
Waxing Crescent, 25% visible
METAR KSNA 041853Z 00000KT 10SM FEW280 18/05 A3007 RMK AO2 SLP182 T01830050

10-Day Weather Forecast

Almanac

Astronomy

Dec. 04, 2016 Rise Set
Actual Time
Civil Twilight
Nautical Twilight
Astronomical Twilight
Moon
Length of Visible Light
Length of Day
Tomorrow will be .
, % of the Moon is Illuminated

Today's Extremes

State Highs State Lows

Community

WunderPhotos

Upload Photos

1,955,650 photos uploaded!

WunderBlog® & News

Nearby

Air Quality

  Air Quality AQ Index Pollutant
Not available.

Snow Depth

Station Depth Elevation

Earthquake Activity

City Distance Mag. Time & Date
Minimum magnitude displayed is 2.5.

Coastal Water Temperatures

Place Temperature

Stations

Nearby Weather Stations

Station Location Temp. Windchill Dew Point Humidity Wind Precip. Elev Updated Type
                   

Watches & Warnings

There are currently no watches in effect.